Portada
METAR-TAF:

METAR-TAF

Aeropuertos :

Trípoli, Libia

Aeropuerto Internacional Mitiga

latitud: 32-54N, longitud: 13-17E, altitud: 11 m

Observación

El informe se hizo hace 36 minutos, a las 07:55 UTC
Viento 12 kt del este
Temperatura 24°C
Humedad 54%
Presión 1018 hPa
Visibilidad: 7000 m
Escasas nubes a una altura de 3000 ft
Nubes dispersas a una altura de 15000 ft

METAR: HLLM 280755Z 08012KT 7000 FEW030 SCT150 24/14 Q1018

Hora: 10:31 (08:31 UTC)


TAF: falta

Observaciones y pronósticos meteorológicos de más de 4000 aeropuertos (mensajes METAR y TAF).

Los puntos amarillos y rojos representan las estaciones disponibles.

Ponga el ratón en el punto deseado para ver el nombre de la estación.

Haga clic para ver las observaciones y los pronósticos meteorológicos.

Para cambiar el mapa : haga clic en los botones verdes con una cruz de color negro para hacer un zoom, en el botón verde con un guión para alejar o en las flechas verdes para mapas adyacentes.


METAR-TAF: